createdAt,value
2022-11-05T00:01:22.911Z,8.73
2022-11-05T00:03:24.735Z,8.69
2022-11-05T00:05:26.688Z,8.60
2022-11-05T00:07:46.535Z,8.37
2022-11-05T00:09:49.026Z,8.03
2022-11-05T00:11:50.986Z,8.29
2022-11-05T00:13:52.750Z,7.81
2022-11-05T00:15:55.257Z,8.63
2022-11-05T00:17:56.970Z,8.34
2022-11-05T00:19:58.858Z,8.68
2022-11-05T00:22:00.535Z,8.59
2022-11-05T00:24:02.240Z,8.42
2022-11-05T00:26:06.558Z,8.42
2022-11-05T00:28:08.261Z,8.29
2022-11-05T00:30:10.558Z,8.07
2022-11-05T00:32:12.429Z,8.20
2022-11-05T00:34:14.170Z,8.58
2022-11-05T00:36:16.074Z,8.48
2022-11-05T00:38:17.964Z,8.29
2022-11-05T00:40:20.090Z,8.24
2022-11-05T00:42:21.907Z,8.50
2022-11-05T00:44:23.755Z,8.40
2022-11-05T00:46:25.491Z,8.30
2022-11-05T00:48:27.210Z,8.30
2022-11-05T00:50:29.076Z,8.00
2022-11-05T00:52:30.774Z,8.52
2022-11-05T00:54:32.452Z,8.28
2022-11-05T00:56:34.270Z,8.50
2022-11-05T00:58:36.015Z,8.57
2022-11-05T01:00:41.731Z,8.39
2022-11-05T01:02:43.776Z,8.30
2022-11-05T01:04:45.617Z,7.95
2022-11-05T01:06:47.444Z,8.13
2022-11-05T01:08:49.238Z,7.94
2022-11-05T01:10:53.794Z,8.10
2022-11-05T01:12:55.750Z,8.27
2022-11-05T01:14:57.804Z,8.20
2022-11-05T01:16:59.557Z,8.07
2022-11-05T01:19:02.189Z,8.01
2022-11-05T01:21:14.413Z,8.32
2022-11-05T01:23:16.987Z,8.42
2022-11-05T01:25:18.856Z,7.93
2022-11-05T01:27:22.408Z,8.33
2022-11-05T01:29:24.093Z,7.76
2022-11-05T01:31:26.551Z,8.15
2022-11-05T01:33:28.481Z,8.20
2022-11-05T01:35:30.328Z,8.34
2022-11-05T01:37:32.052Z,8.31
2022-11-05T01:39:33.807Z,8.14
2022-11-05T01:41:35.636Z,8.27
2022-11-05T01:43:58.512Z,8.08
2022-11-05T01:46:00.843Z,8.20
2022-11-05T01:48:02.668Z,8.44
2022-11-05T01:50:26.005Z,8.23
2022-11-05T01:52:33.348Z,8.32
2022-11-05T01:54:35.978Z,8.19
2022-11-05T01:56:52.346Z,8.32
2022-11-05T01:59:00.098Z,8.44
2022-11-05T02:01:02.299Z,8.18
2022-11-05T02:03:04.429Z,8.12
2022-11-05T02:05:07.201Z,8.48
2022-11-05T02:07:10.697Z,7.89
2022-11-05T02:09:41.626Z,8.34
2022-11-05T02:11:43.392Z,8.40
2022-11-05T02:13:45.811Z,8.25
2022-11-05T02:16:32.373Z,8.45
2022-11-05T02:18:34.090Z,8.44
2022-11-05T02:20:50.961Z,8.46
2022-11-05T02:23:17.182Z,8.51
2022-11-05T02:25:57.176Z,8.39
2022-11-05T02:28:30.048Z,8.55
2022-11-05T02:30:53.921Z,8.48
2022-11-05T02:33:33.331Z,8.49
2022-11-05T02:35:50.448Z,8.53
2022-11-05T02:37:57.509Z,8.14
2022-11-05T02:40:05.468Z,8.51
2022-11-05T02:42:30.755Z,8.49
2022-11-05T02:44:51.630Z,8.16
2022-11-05T02:47:15.507Z,8.49
2022-11-05T02:49:38.287Z,8.52
2022-11-05T02:51:51.554Z,8.20
2022-11-05T02:54:15.066Z,8.47
2022-11-05T02:56:24.708Z,8.47
2022-11-05T02:58:30.131Z,8.46
2022-11-05T03:00:46.985Z,8.35
2022-11-05T03:02:48.988Z,8.11
2022-11-05T03:04:50.846Z,8.36
2022-11-05T03:07:01.523Z,8.53
2022-11-05T03:09:15.479Z,8.45
2022-11-05T03:11:20.091Z,8.61
2022-11-05T03:13:36.846Z,8.66
2022-11-05T03:16:02.815Z,8.54
2022-11-05T03:18:15.146Z,8.63
2022-11-05T03:20:40.059Z,8.20
2022-11-05T03:22:49.614Z,8.68
2022-11-05T03:25:03.203Z,7.90
2022-11-05T03:27:31.446Z,8.61
2022-11-05T03:29:51.266Z,8.56
2022-11-05T03:31:56.962Z,8.31
2022-11-05T03:34:02.313Z,8.53
2022-11-05T03:36:09.014Z,8.30
2022-11-05T03:38:17.263Z,8.29
2022-11-05T03:40:22.420Z,8.57
2022-11-05T03:42:30.131Z,8.38
2022-11-05T03:44:36.644Z,8.62
2022-11-05T03:46:46.031Z,8.13
2022-11-05T03:48:51.544Z,8.39
2022-11-05T03:51:22.414Z,8.06
2022-11-05T03:53:32.998Z,8.36
2022-11-05T03:55:41.544Z,8.30
2022-11-05T03:57:49.681Z,8.34
2022-11-05T03:59:52.006Z,8.43
2022-11-05T04:01:54.804Z,8.63
2022-11-05T04:03:56.607Z,8.48
2022-11-05T04:05:58.372Z,8.53
2022-11-05T04:08:00.097Z,8.10
2022-11-05T04:10:01.898Z,8.31
2022-11-05T04:12:04.597Z,8.57
2022-11-05T04:14:06.319Z,8.15
2022-11-05T04:16:08.229Z,8.52
2022-11-05T04:18:09.944Z,8.46
2022-11-05T04:20:11.675Z,8.42
2022-11-05T04:22:13.681Z,8.00
2022-11-05T04:24:15.548Z,7.84
2022-11-05T04:26:17.324Z,8.38
2022-11-05T04:28:19.103Z,8.62
2022-11-05T04:30:20.986Z,8.17
2022-11-05T04:32:22.679Z,8.84
2022-11-05T04:34:27.705Z,8.40
2022-11-05T04:36:29.978Z,8.81
2022-11-05T04:38:31.705Z,8.63
2022-11-05T04:40:33.896Z,8.79
2022-11-05T04:42:35.648Z,8.56
2022-11-05T04:44:37.534Z,7.93
2022-11-05T04:46:39.695Z,8.56
2022-11-05T04:48:41.428Z,8.80
2022-11-05T04:50:43.170Z,8.83
2022-11-05T04:52:45.434Z,8.45
2022-11-05T04:54:47.174Z,8.75
2022-11-05T04:56:48.932Z,8.85
2022-11-05T04:58:51.189Z,8.74
2022-11-05T05:00:53.101Z,8.62
2022-11-05T05:02:54.888Z,7.64
2022-11-05T05:04:56.878Z,8.72
2022-11-05T05:06:58.650Z,8.56
2022-11-05T05:09:00.394Z,8.60
2022-11-05T05:11:07.924Z,8.72
2022-11-05T05:13:12.143Z,8.71
2022-11-05T05:15:14.054Z,8.78
2022-11-05T05:17:16.678Z,8.78
2022-11-05T05:19:18.405Z,8.94
2022-11-05T05:21:22.462Z,8.95
2022-11-05T05:23:24.296Z,8.91
2022-11-05T05:25:26.063Z,8.87
2022-11-05T05:27:28.653Z,8.75
2022-11-05T05:29:30.436Z,9.12
2022-11-05T05:31:32.342Z,8.76
2022-11-05T05:33:34.110Z,8.71
2022-11-05T05:35:36.177Z,9.08
2022-11-05T05:37:37.881Z,8.35
2022-11-05T05:39:39.680Z,8.70
2022-11-05T05:41:41.524Z,8.75
2022-11-05T05:43:43.862Z,8.99
2022-11-05T05:45:45.640Z,8.77
2022-11-05T05:47:47.690Z,8.22
2022-11-05T05:50:00.212Z,7.97
2022-11-05T05:52:07.949Z,7.85
2022-11-05T05:54:11.158Z,9.07
2022-11-05T05:56:13.098Z,8.60
2022-11-05T05:58:14.812Z,8.61
2022-11-05T06:00:16.660Z,8.71
2022-11-05T06:02:18.530Z,8.66
2022-11-05T06:04:20.373Z,8.86
2022-11-05T06:06:22.305Z,8.92
2022-11-05T06:08:24.017Z,9.10
2022-11-05T06:10:25.979Z,8.86
2022-11-05T06:12:30.032Z,9.21
2022-11-05T06:14:31.780Z,8.98
2022-11-05T06:16:33.641Z,8.55
2022-11-05T06:18:36.251Z,9.02
2022-11-05T06:20:38.046Z,9.24
2022-11-05T06:22:39.862Z,9.10
2022-11-05T06:24:41.782Z,9.13
2022-11-05T06:26:43.552Z,9.13
2022-11-05T06:28:46.269Z,8.91
2022-11-05T06:30:51.806Z,9.25
2022-11-05T06:32:53.599Z,8.92
2022-11-05T06:34:55.575Z,9.14
2022-11-05T06:36:57.658Z,8.83
2022-11-05T06:38:59.444Z,8.59
2022-11-05T06:41:07.179Z,9.28
2022-11-05T06:43:11.105Z,8.94
2022-11-05T06:45:13.071Z,9.32
2022-11-05T06:47:14.886Z,9.23
2022-11-05T06:49:16.864Z,9.01
2022-11-05T06:51:18.752Z,9.29
2022-11-05T06:53:20.671Z,9.21
2022-11-05T06:55:22.948Z,9.20
2022-11-05T06:57:24.742Z,9.16
2022-11-05T06:59:26.474Z,9.11
2022-11-05T07:01:28.530Z,8.78
2022-11-05T07:03:30.767Z,9.21
2022-11-05T07:05:33.118Z,9.38
2022-11-05T07:07:35.063Z,8.77
2022-11-05T07:09:37.378Z,8.65
2022-11-05T07:11:39.389Z,9.30
2022-11-05T07:13:41.324Z,9.26
2022-11-05T07:15:43.138Z,9.08
2022-11-05T07:17:44.869Z,9.26
2022-11-05T07:19:46.709Z,9.53
2022-11-05T07:21:48.851Z,9.36
2022-11-05T07:23:50.694Z,9.31
2022-11-05T07:25:52.688Z,9.22
2022-11-05T07:27:54.432Z,9.82
2022-11-05T07:29:56.165Z,9.44
2022-11-05T07:31:57.929Z,9.51
2022-11-05T07:33:59.761Z,9.36
2022-11-05T07:36:01.507Z,9.85
2022-11-05T07:38:03.301Z,9.92
2022-11-05T07:40:05.689Z,9.96
2022-11-05T07:42:07.394Z,9.64
2022-11-05T07:44:09.220Z,9.76
2022-11-05T07:46:13.830Z,9.54
2022-11-05T07:48:15.770Z,9.44
2022-11-05T07:50:19.393Z,10.24
2022-11-05T07:52:21.017Z,10.08
2022-11-05T07:54:22.717Z,9.89
2022-11-05T07:56:27.244Z,9.62
2022-11-05T07:58:28.988Z,9.53
2022-11-05T08:00:31.010Z,10.51
2022-11-05T08:02:32.975Z,10.03
2022-11-05T08:04:34.832Z,10.33
2022-11-05T08:06:36.576Z,10.27
2022-11-05T08:08:38.370Z,10.20
2022-11-05T08:10:40.210Z,9.76
2022-11-05T08:12:41.959Z,9.72
2022-11-05T08:14:44.000Z,10.50
2022-11-05T08:16:45.806Z,10.37
2022-11-05T08:18:47.510Z,10.63
2022-11-05T08:20:49.589Z,10.62
2022-11-05T08:22:51.465Z,10.72
2022-11-05T08:24:53.266Z,10.42
2022-11-05T08:26:55.188Z,10.61
2022-11-05T08:28:56.957Z,10.30
2022-11-05T08:30:58.757Z,10.67
2022-11-05T08:33:02.872Z,10.46
2022-11-05T08:35:05.146Z,10.07
2022-11-05T08:37:06.908Z,10.11
2022-11-05T08:39:14.260Z,10.62
2022-11-05T08:41:18.493Z,10.39
2022-11-05T08:43:20.218Z,9.85
2022-11-05T08:45:22.026Z,10.59
2022-11-05T08:47:23.858Z,10.43
2022-11-05T08:49:28.819Z,10.22
2022-11-05T08:51:31.198Z,10.45
2022-11-05T08:53:33.019Z,9.86
2022-11-05T08:55:34.975Z,9.87
2022-11-05T08:57:37.056Z,9.65
2022-11-05T08:59:40.751Z,9.89
2022-11-05T09:01:45.144Z,10.50
2022-11-05T09:03:47.109Z,10.62
2022-11-05T09:05:49.284Z,10.44
2022-11-05T09:07:53.165Z,9.86
2022-11-05T09:09:58.373Z,9.82
2022-11-05T09:12:15.620Z,9.30
2022-11-05T09:14:17.999Z,9.54
2022-11-05T09:16:23.077Z,9.39
2022-11-05T09:18:24.942Z,9.42
2022-11-05T09:20:26.987Z,9.86
2022-11-05T09:22:28.896Z,9.66
2022-11-05T09:24:30.802Z,9.70
2022-11-05T09:26:32.959Z,9.16
2022-11-05T09:28:34.986Z,9.23
2022-11-05T09:30:43.914Z,9.87
2022-11-05T09:32:45.704Z,9.92
2022-11-05T09:34:47.728Z,10.44
2022-11-05T09:36:49.494Z,10.61
2022-11-05T09:38:51.570Z,9.44
2022-11-05T09:41:33.505Z,9.54
2022-11-05T09:43:38.638Z,10.66
2022-11-05T09:45:40.800Z,10.19
2022-11-05T09:47:57.557Z,10.47
2022-11-05T09:50:02.939Z,9.57
2022-11-05T09:52:06.020Z,9.01
2022-11-05T09:54:10.188Z,9.07
2022-11-05T09:56:41.150Z,10.04
2022-11-05T09:58:52.022Z,9.01
2022-11-05T10:00:54.505Z,10.24
2022-11-05T10:03:04.526Z,9.46
2022-11-05T10:05:11.834Z,9.50
2022-11-05T10:07:18.908Z,10.22
2022-11-05T10:09:36.768Z,9.68
2022-11-05T10:11:45.174Z,9.83
2022-11-05T10:13:58.885Z,9.68
2022-11-05T10:16:02.625Z,9.82
2022-11-05T10:18:13.671Z,10.25
2022-11-05T10:20:35.037Z,10.35
2022-11-05T10:22:37.428Z,9.58
2022-11-05T10:24:43.379Z,10.42
2022-11-05T10:26:49.705Z,9.49
2022-11-05T10:28:51.734Z,9.16
2022-11-05T10:30:59.222Z,9.98
2022-11-05T10:33:05.228Z,9.51
2022-11-05T10:35:11.673Z,9.57
2022-11-05T10:37:13.719Z,9.91
2022-11-05T10:39:18.303Z,10.36
2022-11-05T10:42:01.452Z,10.28
2022-11-05T10:44:28.052Z,10.73
2022-11-05T10:46:47.652Z,10.06
2022-11-05T10:49:23.180Z,9.07
2022-11-05T10:51:25.669Z,9.69
2022-11-05T10:53:33.802Z,9.10
2022-11-05T11:00:41.031Z,10.50
2022-11-05T11:02:55.977Z,10.47
2022-11-05T11:04:57.734Z,10.41
2022-11-05T11:06:59.941Z,10.33
2022-11-05T11:09:08.627Z,10.30
2022-11-05T11:11:13.505Z,10.07
2022-11-05T11:13:21.341Z,10.10
2022-11-05T11:15:31.203Z,10.08
2022-11-05T11:17:32.928Z,9.98
2022-11-05T11:19:36.346Z,10.00
2022-11-05T11:21:38.101Z,10.11
2022-11-05T11:23:41.705Z,10.24
2022-11-05T11:25:46.422Z,10.16
2022-11-05T11:27:48.181Z,9.95
2022-11-05T11:30:01.887Z,10.00
2022-11-05T11:32:03.701Z,9.93
2022-11-05T11:34:22.269Z,10.02
2022-11-05T11:36:38.635Z,10.09
2022-11-05T11:38:41.361Z,10.18
2022-11-05T11:40:43.128Z,10.34
2022-11-05T11:42:54.312Z,10.23
2022-11-05T11:44:58.885Z,10.22
2022-11-05T11:47:10.288Z,10.20
2022-11-05T11:49:39.783Z,10.30
2022-11-05T11:51:49.970Z,10.42
2022-11-05T11:53:57.248Z,10.43
2022-11-05T11:56:00.446Z,10.35
2022-11-05T11:58:07.107Z,10.24
2022-11-05T12:00:10.029Z,10.46
2022-11-05T12:02:57.337Z,10.13
2022-11-05T12:05:18.613Z,10.07
2022-11-05T12:07:26.505Z,10.06
2022-11-05T12:09:37.163Z,10.16
2022-11-05T12:11:46.483Z,10.32
2022-11-05T12:14:16.510Z,10.23
2022-11-05T12:16:40.291Z,10.16
2022-11-05T12:18:55.024Z,10.21
2022-11-05T12:21:05.725Z,10.36
2022-11-05T12:23:18.702Z,10.30
2022-11-05T12:25:23.610Z,10.25
2022-11-05T12:28:02.862Z,10.25
2022-11-05T12:30:07.500Z,10.33
2022-11-05T12:32:36.004Z,10.40
2022-11-05T12:35:12.103Z,10.57
2022-11-05T12:37:44.478Z,10.46
2022-11-05T12:39:57.197Z,10.37
2022-11-05T12:42:23.779Z,10.42
2022-11-05T12:44:52.210Z,10.21
2022-11-05T12:47:03.966Z,10.14
2022-11-05T12:49:26.727Z,10.36
2022-11-05T12:51:56.091Z,10.22
2022-11-05T12:54:05.791Z,9.87
2022-11-05T12:56:20.921Z,10.03
2022-11-05T12:58:30.033Z,10.08
2022-11-05T13:00:31.891Z,9.96
2022-11-05T13:02:37.860Z,10.11
2022-11-05T13:04:50.387Z,10.15
2022-11-05T13:06:55.922Z,10.00
2022-11-05T13:09:07.823Z,9.96
2022-11-05T13:11:28.107Z,10.00
2022-11-05T13:13:42.815Z,9.90
2022-11-05T13:15:59.069Z,9.79
2022-11-05T13:18:06.764Z,9.85
2022-11-05T13:20:20.086Z,9.92
2022-11-05T13:22:36.726Z,9.97
2022-11-05T13:24:47.368Z,9.92
2022-11-05T13:26:49.021Z,9.85
2022-11-05T13:29:34.144Z,9.97
2022-11-05T13:31:41.395Z,9.86
2022-11-05T13:33:45.717Z,9.77
2022-11-05T13:36:08.016Z,9.76
2022-11-05T13:38:23.153Z,9.88
2022-11-05T13:40:51.785Z,9.97
2022-11-05T13:43:22.729Z,9.77
2022-11-05T13:45:33.951Z,9.78
2022-11-05T13:48:03.156Z,9.97
2022-11-05T13:50:25.022Z,9.95
2022-11-05T13:52:35.802Z,9.73
2022-11-05T13:54:43.644Z,9.88
2022-11-05T13:56:57.448Z,9.82
2022-11-05T13:59:32.812Z,9.76
2022-11-05T14:01:58.309Z,9.74
2022-11-05T14:04:00.282Z,9.77
2022-11-05T14:06:07.771Z,9.59
2022-11-05T14:08:12.794Z,9.72
2022-11-05T14:10:23.457Z,9.78
2022-11-05T14:12:31.247Z,9.81
2022-11-05T14:14:45.932Z,9.85
2022-11-05T14:17:12.172Z,9.96
2022-11-05T14:19:20.045Z,9.96
2022-11-05T14:21:27.650Z,9.96
2022-11-05T14:23:38.548Z,9.83
2022-11-05T14:25:40.450Z,9.55
2022-11-05T14:27:44.281Z,9.56
2022-11-05T14:29:50.034Z,9.55
2022-11-05T14:32:08.450Z,9.51
2022-11-05T14:34:11.096Z,9.43
2022-11-05T14:36:18.559Z,9.53
2022-11-05T14:38:26.184Z,9.45
2022-11-05T14:40:33.673Z,9.53
2022-11-05T14:42:35.433Z,9.58
2022-11-05T14:44:55.375Z,9.55
2022-11-05T14:47:04.457Z,9.51
2022-11-05T14:49:09.609Z,9.67
2022-11-05T14:51:33.754Z,9.55
2022-11-05T14:53:39.458Z,9.49
2022-11-05T14:55:43.537Z,9.53
2022-11-05T14:57:54.238Z,9.57
2022-11-05T14:59:57.184Z,9.73
2022-11-05T15:02:12.036Z,9.64
2022-11-05T15:04:33.860Z,9.60
2022-11-05T15:06:37.405Z,9.58
2022-11-05T15:08:55.946Z,9.61
2022-11-05T15:11:10.532Z,9.62
2022-11-05T15:13:33.665Z,9.57
2022-11-05T15:15:47.113Z,9.62
2022-11-05T15:17:58.236Z,9.62
2022-11-05T15:20:22.135Z,9.48
2022-11-05T15:22:31.100Z,9.47
2022-11-05T15:24:34.319Z,9.44
2022-11-05T15:27:00.966Z,9.54
2022-11-05T15:29:02.946Z,9.63
2022-11-05T15:31:06.713Z,9.74
2022-11-05T15:33:21.367Z,9.63
2022-11-05T15:35:28.660Z,9.63
2022-11-05T15:37:30.460Z,9.59
2022-11-05T15:39:46.185Z,9.55
2022-11-05T15:41:47.872Z,9.65
2022-11-05T15:43:50.433Z,9.65
2022-11-05T15:46:14.877Z,9.59
2022-11-05T15:48:19.186Z,9.54
2022-11-05T15:50:21.075Z,9.39
2022-11-05T15:52:25.973Z,9.41
2022-11-05T15:54:30.586Z,9.38
2022-11-05T15:56:46.789Z,9.48
2022-11-05T15:58:50.940Z,9.47
2022-11-05T16:00:52.656Z,9.46
2022-11-05T16:02:57.372Z,9.46
2022-11-05T16:05:01.372Z,9.49
2022-11-05T16:07:11.711Z,9.47
2022-11-05T16:09:26.469Z,9.35
2022-11-05T16:11:28.208Z,9.54
2022-11-05T16:13:36.879Z,9.66
2022-11-05T16:15:38.747Z,9.59
2022-11-05T16:17:40.403Z,9.55
2022-11-05T16:19:42.389Z,9.47
2022-11-05T16:21:54.374Z,9.58
2022-11-05T16:24:00.140Z,9.72
2022-11-05T16:26:01.892Z,9.69
2022-11-05T16:28:20.169Z,9.54
2022-11-05T16:30:22.263Z,9.49
2022-11-05T16:32:31.131Z,9.61
2022-11-05T16:34:36.027Z,9.59
2022-11-05T16:36:37.792Z,9.59
2022-11-05T16:38:40.469Z,9.62
2022-11-05T16:40:42.185Z,9.67
2022-11-05T16:42:44.893Z,9.72
2022-11-05T16:44:46.623Z,9.72
2022-11-05T16:46:49.646Z,9.74
2022-11-05T16:48:51.736Z,9.69
2022-11-05T16:50:53.651Z,9.77
2022-11-05T16:52:55.577Z,9.71
2022-11-05T16:54:57.288Z,9.63
2022-11-05T16:56:59.191Z,9.53
2022-11-05T16:59:02.051Z,9.59
2022-11-05T17:01:06.471Z,9.44
2022-11-05T17:03:09.594Z,9.48
2022-11-05T17:05:26.820Z,9.48
2022-11-05T17:07:28.698Z,9.21
2022-11-05T17:09:30.417Z,9.23
2022-11-05T17:11:32.182Z,9.13
2022-11-05T17:13:33.995Z,9.10
2022-11-05T17:15:35.808Z,9.22
2022-11-05T17:17:37.691Z,9.19
2022-11-05T17:19:39.653Z,9.19
2022-11-05T17:21:41.875Z,9.10
2022-11-05T17:23:43.694Z,9.15
2022-11-05T17:25:48.229Z,9.12
2022-11-05T17:27:50.428Z,9.02
2022-11-05T17:29:52.240Z,9.09
2022-11-05T17:31:53.968Z,9.11
2022-11-05T17:33:57.224Z,9.07
2022-11-05T17:35:59.272Z,9.09
2022-11-05T17:38:01.029Z,8.98
2022-11-05T17:40:04.928Z,9.07
2022-11-05T17:42:06.707Z,9.15
2022-11-05T17:44:10.505Z,9.18
2022-11-05T17:46:15.053Z,9.22
2022-11-05T17:48:17.790Z,9.23
2022-11-05T17:50:19.516Z,9.16
2022-11-05T17:52:21.308Z,9.13
2022-11-05T17:54:23.236Z,9.23
2022-11-05T17:56:33.862Z,9.22
2022-11-05T17:58:37.790Z,9.19
2022-11-05T18:00:40.917Z,9.18
2022-11-05T18:02:42.743Z,9.21
2022-11-05T18:04:44.530Z,9.16
2022-11-05T18:06:46.323Z,9.18
2022-11-05T18:08:48.730Z,9.12
2022-11-05T18:10:53.273Z,9.19
2022-11-05T18:12:55.286Z,9.17
2022-11-05T18:14:57.016Z,9.25
2022-11-05T18:16:58.776Z,9.11
2022-11-05T18:19:00.583Z,9.11
2022-11-05T18:21:02.342Z,9.06
2022-11-05T18:23:04.358Z,9.05
2022-11-05T18:25:07.022Z,9.14
2022-11-05T18:27:08.751Z,9.10
2022-11-05T18:29:10.490Z,9.02
2022-11-05T18:31:20.350Z,9.01
2022-11-05T18:33:23.479Z,9.08
2022-11-05T18:35:25.494Z,9.06
2022-11-05T18:37:27.319Z,9.08
2022-11-05T18:39:29.088Z,8.99
2022-11-05T18:41:31.060Z,8.97
2022-11-05T18:43:32.831Z,8.98
2022-11-05T18:45:34.517Z,8.92
2022-11-05T18:47:37.787Z,8.98
2022-11-05T18:49:39.544Z,8.96
2022-11-05T18:51:41.476Z,8.89
2022-11-05T18:53:43.427Z,8.93
2022-11-05T18:55:45.259Z,8.89
2022-11-05T18:57:47.027Z,8.87
2022-11-05T18:59:48.760Z,8.70
2022-11-05T19:01:50.820Z,8.67
2022-11-05T19:03:53.349Z,8.53
2022-11-05T19:05:55.083Z,8.46
2022-11-05T19:07:56.991Z,8.52
2022-11-05T19:09:58.774Z,8.46
2022-11-05T19:12:00.893Z,8.47
2022-11-05T19:14:04.075Z,8.43
2022-11-05T19:16:10.745Z,8.29
2022-11-05T19:18:12.665Z,8.36
2022-11-05T19:20:14.781Z,8.31
2022-11-05T19:22:16.501Z,8.39
2022-11-05T19:24:18.784Z,8.28
2022-11-05T19:26:28.151Z,8.15
2022-11-05T19:28:30.496Z,8.23
2022-11-05T19:30:32.201Z,8.28
2022-11-05T19:32:33.960Z,8.19
2022-11-05T19:34:35.943Z,8.22
2022-11-05T19:36:37.629Z,8.17
2022-11-05T19:38:39.614Z,8.18
2022-11-05T19:40:41.397Z,8.16
2022-11-05T19:42:43.090Z,8.20
2022-11-05T19:44:45.090Z,8.13
2022-11-05T19:46:46.785Z,8.14
2022-11-05T19:48:49.097Z,8.21
2022-11-05T19:50:51.034Z,8.25
2022-11-05T19:52:52.778Z,8.16
2022-11-05T19:54:54.504Z,8.27
2022-11-05T19:59:34.188Z,8.31
2022-11-05T20:01:36.205Z,8.40
2022-11-05T20:03:38.233Z,8.46
2022-11-05T20:05:40.532Z,8.42
2022-11-05T20:07:42.238Z,8.37
2022-11-05T20:09:44.013Z,8.22
2022-11-05T20:11:46.251Z,8.28
2022-11-05T20:13:47.977Z,8.37
2022-11-05T20:15:50.007Z,8.22
2022-11-05T20:17:52.596Z,8.23
2022-11-05T20:19:54.350Z,8.14
2022-11-05T20:21:59.751Z,8.25
2022-11-05T20:24:01.870Z,8.17
2022-11-05T20:26:05.820Z,8.22
2022-11-05T20:28:07.514Z,8.18
2022-11-05T20:30:10.032Z,8.13
2022-11-05T20:32:11.790Z,8.18
2022-11-05T20:34:13.590Z,8.05
2022-11-05T20:36:17.529Z,7.98
2022-11-05T20:38:19.265Z,8.06
2022-11-05T20:40:20.983Z,8.02
2022-11-05T20:42:22.864Z,7.85
2022-11-05T20:44:24.587Z,7.94
2022-11-05T20:46:26.317Z,7.92
2022-11-05T20:48:31.374Z,7.84
2022-11-05T20:50:33.101Z,7.90
2022-11-05T20:52:34.827Z,7.93
2022-11-05T20:54:36.584Z,7.82
2022-11-05T20:56:38.317Z,7.82
2022-11-05T20:58:40.017Z,7.72
2022-11-05T21:00:49.417Z,7.75
2022-11-05T21:02:51.293Z,7.80
2022-11-05T21:04:53.088Z,7.85
2022-11-05T21:06:55.018Z,7.81
2022-11-05T21:08:56.948Z,7.67
2022-11-05T21:10:58.696Z,7.86
2022-11-05T21:13:00.954Z,7.87
2022-11-05T21:15:02.722Z,7.93
2022-11-05T21:17:05.293Z,7.90
2022-11-05T21:19:07.136Z,7.87
2022-11-05T21:21:12.770Z,7.97
2022-11-05T21:23:15.105Z,7.99
2022-11-05T21:25:16.972Z,7.89
2022-11-05T21:27:18.718Z,7.76
2022-11-05T21:29:20.808Z,7.79
2022-11-05T21:31:22.590Z,7.66
2022-11-05T21:33:24.310Z,7.66
2022-11-05T21:35:26.121Z,7.73
2022-11-05T21:37:28.046Z,7.64
2022-11-05T21:39:29.743Z,7.76
2022-11-05T21:41:32.334Z,7.80
2022-11-05T21:43:34.494Z,7.76
2022-11-05T21:45:38.808Z,7.91
2022-11-05T21:47:40.554Z,7.93
2022-11-05T21:49:42.426Z,7.94
2022-11-05T21:51:44.224Z,7.93
2022-11-05T21:53:46.010Z,7.96
2022-11-05T21:55:47.749Z,7.91
2022-11-05T21:57:49.457Z,7.86
2022-11-05T21:59:51.181Z,7.79
2022-11-05T22:01:53.085Z,7.81
2022-11-05T22:03:57.691Z,7.76
2022-11-05T22:06:03.723Z,7.74
2022-11-05T22:08:05.641Z,7.71
2022-11-05T22:10:15.630Z,7.68
2022-11-05T22:12:18.441Z,7.63
2022-11-05T22:14:20.706Z,7.62
2022-11-05T22:16:22.416Z,7.63
2022-11-05T22:18:24.139Z,7.62
2022-11-05T22:20:25.929Z,7.50
2022-11-05T22:22:27.620Z,7.50
2022-11-05T22:24:29.379Z,7.47
2022-11-05T22:26:31.181Z,7.29
2022-11-05T22:28:32.914Z,7.24
2022-11-05T22:30:35.200Z,7.26
2022-11-05T22:32:38.097Z,7.23
2022-11-05T22:34:39.872Z,7.16
2022-11-05T22:36:41.583Z,7.18
2022-11-05T22:38:43.366Z,7.23
2022-11-05T22:40:45.073Z,7.17
2022-11-05T22:42:46.831Z,7.09
2022-11-05T22:44:48.968Z,7.15
2022-11-05T22:46:50.969Z,7.12
2022-11-05T22:48:53.395Z,7.11
2022-11-05T22:50:55.206Z,6.99
2022-11-05T22:52:56.900Z,7.00
2022-11-05T22:54:58.608Z,6.92
2022-11-05T22:57:00.521Z,7.00
2022-11-05T22:59:03.364Z,7.00
2022-11-05T23:01:05.891Z,6.97
2022-11-05T23:03:07.778Z,6.96
2022-11-05T23:05:10.342Z,6.92
2022-11-05T23:07:12.059Z,6.88
2022-11-05T23:09:17.639Z,6.93
2022-11-05T23:11:24.155Z,6.90
2022-11-05T23:13:25.884Z,6.80
2022-11-05T23:15:27.656Z,6.72
2022-11-05T23:17:29.476Z,6.73
2022-11-05T23:19:31.407Z,6.57
2022-11-05T23:21:33.182Z,6.69
2022-11-05T23:23:34.912Z,6.65
2022-11-05T23:25:36.605Z,6.66
2022-11-05T23:27:39.983Z,6.71
2022-11-05T23:29:41.657Z,6.73
2022-11-05T23:31:43.363Z,6.64
2022-11-05T23:33:45.106Z,6.62
2022-11-05T23:35:46.799Z,6.66
2022-11-05T23:37:48.539Z,6.65
2022-11-05T23:39:50.398Z,6.56
2022-11-05T23:41:52.100Z,6.58
2022-11-05T23:43:53.790Z,6.61
2022-11-05T23:45:58.817Z,6.62
2022-11-05T23:48:16.134Z,6.65
2022-11-05T23:50:18.196Z,6.64
2022-11-05T23:52:19.956Z,6.55
2022-11-05T23:54:21.665Z,6.53
2022-11-05T23:56:23.395Z,6.48
2022-11-05T23:58:25.190Z,6.40
